Main page
METAR-TAF:

METAR-TAF

Airports :

Osijek Airport

Osijek, Croatia

latitude: 45-27N, longitude: 018-48E, elevation: 88 m

Current weather observation

The report was made 10 minutes ago, at 19:00 UTC
Wind 3 kt from the South
Temperature 10°C
Humidity 76%
Pressure 1026 hPa
Visibility 10 km or more
no clouds below 1500 m and no cumulonimbus

METAR: LDOS 131900Z 18003KT CAVOK 10/06 Q1026

Time: 20:10 (19:10 UTC)

Forecast

The report was made 1 hour and 45 minutes ago, at 17:25 UTC
Forecast valid from 13 at 18 UTC to 14 at 18 UTC
Wind 5 kt from the North/Northwest
Visibility 10 km or more
no clouds below 1500 m and no cumulonimbus
Becoming
from 13 at 19 UTC to 13 at 21 UTC
Wind 10 kt from the Northwest
Becoming
from 14 at 13 UTC to 14 at 15 UTC
Wind 6 kt from the North

TAF: LDOS 131725Z 1318/1418 34005KT CAVOK TX15/1412Z TN06/1405Z BECMG 1319/1321 32010KT BECMG 1413/1415 36006KT

Weather observations and forecasts of more than 4000 airports (METAR and TAF reports).

The available stations are represented by yellow and red dots on the map.

Hover mouse over dot to see the name of the station.

Then click to see weather observations and forecasts.

To change the map : click on the green buttons with a black cross to zoom in, on the green button with a dash to zoom out, or on the green arrows for adjacent maps.


METAR-TAF: